createdAt,value
2018-02-18T00:00:56.397Z,12.35
2018-02-18T00:03:24.769Z,12.93
2018-02-18T00:05:53.629Z,13.20
2018-02-18T00:08:22.025Z,11.90
2018-02-18T00:10:50.392Z,12.07
2018-02-18T00:13:18.741Z,12.95
2018-02-18T00:15:47.077Z,12.82
2018-02-18T00:18:15.427Z,13.32
2018-02-18T00:20:43.834Z,12.48
2018-02-18T00:23:12.299Z,13.73
2018-02-18T00:25:40.618Z,13.57
2018-02-18T00:28:09.744Z,15.48
2018-02-18T00:30:38.117Z,14.45
2018-02-18T00:33:06.453Z,14.18
2018-02-18T00:35:34.881Z,13.65
2018-02-18T00:38:03.238Z,12.75
2018-02-18T00:40:32.334Z,13.02
2018-02-18T00:43:00.758Z,12.98
2018-02-18T00:45:29.086Z,13.85
2018-02-18T00:47:57.444Z,12.32
2018-02-18T00:50:26.388Z,13.95
2018-02-18T00:52:54.713Z,13.75
2018-02-18T00:55:23.044Z,13.25
2018-02-18T00:57:52.176Z,13.77
2018-02-18T01:00:20.552Z,13.13
2018-02-18T01:02:48.958Z,13.68
2018-02-18T01:05:17.449Z,12.48
2018-02-18T01:07:45.795Z,12.82
2018-02-18T01:10:14.141Z,11.10
2018-02-18T01:12:42.625Z,11.80
2018-02-18T01:15:10.977Z,11.30
2018-02-18T01:17:39.416Z,12.82
2018-02-18T01:20:07.786Z,11.68
2018-02-18T01:22:36.169Z,11.90
2018-02-18T01:25:04.523Z,11.75
2018-02-18T01:27:33.028Z,12.07
2018-02-18T01:30:01.372Z,10.32
2018-02-18T01:32:30.527Z,11.60
2018-02-18T01:34:59.482Z,11.10
2018-02-18T01:37:27.817Z,10.48
2018-02-18T01:39:56.162Z,11.77
2018-02-18T01:42:24.541Z,11.60
2018-02-18T01:44:52.892Z,11.30
2018-02-18T01:47:21.260Z,9.90
2018-02-18T01:49:49.694Z,9.95
2018-02-18T01:52:18.053Z,10.35
2018-02-18T01:54:46.408Z,10.70
2018-02-18T01:57:15.198Z,10.15
2018-02-18T01:59:43.617Z,9.82
2018-02-18T02:02:11.985Z,10.25
2018-02-18T02:04:40.395Z,10.38
2018-02-18T02:07:08.768Z,11.90
2018-02-18T02:09:37.106Z,9.85
2018-02-18T02:12:05.466Z,10.20
2018-02-18T02:14:33.777Z,9.70
2018-02-18T02:17:02.123Z,8.85
2018-02-18T02:19:31.539Z,9.63
2018-02-18T02:21:59.891Z,9.55
2018-02-18T02:24:28.998Z,10.15
2018-02-18T02:26:58.163Z,8.65
2018-02-18T02:29:26.580Z,8.35
2018-02-18T02:31:55.681Z,8.02
2018-02-18T02:34:24.036Z,8.15
2018-02-18T02:36:52.457Z,9.00
2018-02-18T02:39:20.840Z,8.70
2018-02-18T02:41:49.414Z,9.45
2018-02-18T02:44:17.777Z,10.45
2018-02-18T02:46:46.873Z,9.10
2018-02-18T02:49:15.248Z,9.65
2018-02-18T02:51:44.411Z,9.63
2018-02-18T02:54:12.751Z,9.55
2018-02-18T02:56:41.184Z,10.60
2018-02-18T02:59:09.527Z,8.25
2018-02-18T03:01:37.860Z,8.63
2018-02-18T03:04:07.112Z,8.40
2018-02-18T03:06:35.468Z,8.55
2018-02-18T03:09:03.845Z,8.32
2018-02-18T03:11:32.219Z,8.60
2018-02-18T03:14:00.586Z,8.25
2018-02-18T03:16:29.704Z,7.80
2018-02-18T03:18:58.101Z,8.70
2018-02-18T03:21:26.446Z,7.72
2018-02-18T03:23:54.817Z,8.00
2018-02-18T03:26:24.418Z,7.87
2018-02-18T03:28:52.772Z,6.97
2018-02-18T03:31:21.154Z,6.82
2018-02-18T03:33:49.522Z,7.57
2018-02-18T03:36:17.866Z,7.00
2018-02-18T03:38:46.220Z,7.60
2018-02-18T03:41:14.600Z,6.93
2018-02-18T03:43:42.966Z,6.93
2018-02-18T03:46:11.316Z,6.60
2018-02-18T03:48:40.054Z,7.37
2018-02-18T03:51:08.386Z,6.68
2018-02-18T03:53:36.708Z,6.50
2018-02-18T03:56:05.069Z,7.18
2018-02-18T03:58:34.161Z,5.90
2018-02-18T04:01:02.506Z,6.75
2018-02-18T04:03:30.908Z,7.25
2018-02-18T04:05:59.389Z,6.82
2018-02-18T04:08:27.744Z,8.27
2018-02-18T04:10:56.397Z,7.00
2018-02-18T04:13:24.756Z,8.50
2018-02-18T04:15:53.284Z,7.40
2018-02-18T04:18:21.669Z,8.32
2018-02-18T04:20:50.047Z,8.30
2018-02-18T04:23:18.394Z,7.80
2018-02-18T04:25:46.775Z,7.70
2018-02-18T04:28:15.157Z,6.85
2018-02-18T04:30:43.562Z,8.07
2018-02-18T04:33:12.394Z,7.45
2018-02-18T04:35:40.751Z,7.90
2018-02-18T04:38:09.870Z,6.85
2018-02-18T04:40:39.021Z,7.22
2018-02-18T04:43:07.376Z,7.35
2018-02-18T04:45:35.730Z,7.20
2018-02-18T04:48:04.972Z,8.38
2018-02-18T04:50:33.352Z,7.10
2018-02-18T04:53:01.807Z,7.10
2018-02-18T04:55:30.310Z,6.65
2018-02-18T04:57:58.731Z,6.65
2018-02-18T05:00:27.080Z,6.80
2018-02-18T05:02:55.474Z,6.78
2018-02-18T05:05:23.880Z,8.57
2018-02-18T05:07:53.018Z,7.72
2018-02-18T05:10:21.455Z,7.32
2018-02-18T05:12:49.937Z,7.62
2018-02-18T05:15:18.318Z,7.20
2018-02-18T05:17:47.044Z,6.65
2018-02-18T05:20:15.501Z,8.20
2018-02-18T05:22:44.682Z,7.30
2018-02-18T05:25:13.169Z,7.45
2018-02-18T05:27:41.644Z,7.65
2018-02-18T05:30:09.996Z,7.85
2018-02-18T05:32:38.408Z,7.93
2018-02-18T05:35:07.714Z,8.02
2018-02-18T05:37:36.289Z,8.60
2018-02-18T05:40:04.774Z,7.57
2018-02-18T05:42:33.158Z,6.80
2018-02-18T05:45:01.532Z,6.50
2018-02-18T05:47:29.992Z,6.45
2018-02-18T05:49:59.322Z,6.30
2018-02-18T05:52:28.572Z,6.35
2018-02-18T05:54:57.025Z,6.95
2018-02-18T05:57:25.515Z,6.55
2018-02-18T05:59:53.958Z,5.90
2018-02-18T06:02:22.614Z,6.78
2018-02-18T06:04:51.125Z,6.35
2018-02-18T06:07:19.609Z,6.12
2018-02-18T06:09:48.107Z,7.50
2018-02-18T06:12:16.580Z,7.20
2018-02-18T06:14:45.892Z,6.47
2018-02-18T06:17:14.325Z,6.40
2018-02-18T06:19:42.642Z,6.80
2018-02-18T06:22:11.025Z,6.40
2018-02-18T06:24:40.424Z,6.80
2018-02-18T06:27:08.796Z,7.03
2018-02-18T06:29:37.193Z,6.53
2018-02-18T06:32:05.578Z,6.00
2018-02-18T06:34:34.755Z,6.93
2018-02-18T06:37:03.193Z,6.20
2018-02-18T06:39:31.544Z,6.45
2018-02-18T06:41:59.957Z,6.20
2018-02-18T06:44:28.372Z,6.37
2018-02-18T06:47:00.012Z,6.30
2018-02-18T06:49:28.358Z,5.12
2018-02-18T06:51:56.785Z,6.03
2018-02-18T06:54:25.479Z,6.03
2018-02-18T06:56:54.665Z,6.05
2018-02-18T06:59:23.007Z,4.87
2018-02-18T07:01:51.431Z,6.32
2018-02-18T07:04:19.729Z,6.68
2018-02-18T07:06:48.894Z,6.53
2018-02-18T07:09:17.486Z,6.15
2018-02-18T07:11:45.932Z,6.65
2018-02-18T07:14:14.338Z,6.47
2018-02-18T07:16:42.796Z,6.22
2018-02-18T07:19:11.181Z,6.40
2018-02-18T07:21:39.717Z,6.40
2018-02-18T07:24:08.855Z,5.65
2018-02-18T07:26:37.375Z,6.77
2018-02-18T07:29:05.931Z,6.63
2018-02-18T07:31:34.634Z,5.97
2018-02-18T07:34:03.050Z,6.33
2018-02-18T07:36:31.478Z,6.97
2018-02-18T07:38:59.903Z,6.97
2018-02-18T07:41:29.104Z,6.15
2018-02-18T07:43:57.570Z,6.00
2018-02-18T07:46:26.050Z,6.70
2018-02-18T07:48:54.490Z,6.50
2018-02-18T07:51:23.020Z,6.60
2018-02-18T07:53:52.559Z,6.80
2018-02-18T07:56:21.008Z,6.07
2018-02-18T07:58:49.348Z,5.80
2018-02-18T08:01:17.762Z,6.00
2018-02-18T08:03:46.139Z,8.80
2018-02-18T08:06:14.464Z,5.97
2018-02-18T08:08:43.000Z,6.17
2018-02-18T08:11:11.373Z,6.87
2018-02-18T08:13:39.700Z,5.70
2018-02-18T08:16:08.715Z,5.67
2018-02-18T08:18:37.139Z,7.53
2018-02-18T08:21:06.257Z,6.20
2018-02-18T08:23:35.417Z,6.33
2018-02-18T08:26:03.730Z,6.40
2018-02-18T08:28:32.832Z,7.43
2018-02-18T08:31:01.204Z,5.90
2018-02-18T08:33:30.344Z,6.87
2018-02-18T08:35:58.759Z,8.23
2018-02-18T08:38:27.337Z,7.87
2018-02-18T08:40:56.512Z,8.23
2018-02-18T08:43:24.860Z,7.30
2018-02-18T08:45:53.369Z,8.90
2018-02-18T08:48:21.855Z,7.77
2018-02-18T08:50:50.204Z,7.50
2018-02-18T08:53:18.625Z,7.47
2018-02-18T08:55:47.066Z,7.40
2018-02-18T08:58:15.518Z,6.40
2018-02-18T09:00:44.094Z,6.67
2018-02-18T09:03:12.458Z,6.77
2018-02-18T09:05:40.990Z,5.97
2018-02-18T09:08:09.511Z,5.60
2018-02-18T09:10:37.911Z,5.40
2018-02-18T09:13:06.291Z,4.30
2018-02-18T09:15:35.467Z,4.57
2018-02-18T09:18:03.916Z,4.73
2018-02-18T09:20:33.017Z,4.17
2018-02-18T09:23:01.686Z,5.43
2018-02-18T09:25:30.850Z,3.90
2018-02-18T09:27:59.260Z,4.50
2018-02-18T09:30:28.526Z,4.10
2018-02-18T09:32:56.908Z,3.50
2018-02-18T09:35:25.370Z,3.97
2018-02-18T09:37:54.003Z,4.43
2018-02-18T09:40:23.184Z,4.07
2018-02-18T09:42:51.597Z,3.30
2018-02-18T09:45:20.461Z,3.73
2018-02-18T09:47:49.629Z,3.17
2018-02-18T09:50:18.112Z,4.93
2018-02-18T09:52:46.605Z,3.50
2018-02-18T09:55:14.982Z,3.80
2018-02-18T09:57:43.464Z,3.50
2018-02-18T10:00:11.835Z,3.50
2018-02-18T10:02:40.224Z,4.40
2018-02-18T10:05:08.689Z,3.63
2018-02-18T10:07:37.605Z,3.40
2018-02-18T10:10:06.066Z,3.40
2018-02-18T10:12:34.525Z,3.67
2018-02-18T10:15:03.074Z,3.20
2018-02-18T10:17:32.194Z,3.60
2018-02-18T10:20:00.619Z,3.43
2018-02-18T10:22:29.548Z,3.57
2018-02-18T10:24:58.738Z,3.83
2018-02-18T10:27:27.838Z,3.57
2018-02-18T10:29:57.141Z,4.30
2018-02-18T10:32:25.537Z,4.17
2018-02-18T10:34:53.975Z,4.07
2018-02-18T10:37:23.153Z,3.80
2018-02-18T10:39:51.642Z,4.17
2018-02-18T10:42:19.980Z,4.33
2018-02-18T10:44:48.326Z,4.00
2018-02-18T10:47:17.518Z,4.03
2018-02-18T10:49:46.080Z,4.37
2018-02-18T10:52:15.210Z,5.07
2018-02-18T10:54:44.434Z,4.23
2018-02-18T10:57:12.839Z,4.73
2018-02-18T10:59:41.346Z,4.57
2018-02-18T11:02:09.951Z,4.10
2018-02-18T11:04:39.046Z,3.47
2018-02-18T11:07:07.421Z,3.83
2018-02-18T11:09:35.789Z,4.20
2018-02-18T11:12:04.213Z,4.03
2018-02-18T11:14:32.770Z,3.90
2018-02-18T11:17:01.947Z,4.50
2018-02-18T11:19:30.407Z,4.03
2018-02-18T11:21:58.858Z,4.40
2018-02-18T11:24:27.227Z,3.93
2018-02-18T11:26:55.605Z,3.27
2018-02-18T11:29:23.967Z,4.30
2018-02-18T11:31:52.429Z,3.80
2018-02-18T11:34:20.939Z,4.10
2018-02-18T11:36:49.473Z,3.73
2018-02-18T11:39:17.787Z,4.57
2018-02-18T11:41:47.870Z,4.40
2018-02-18T11:44:16.499Z,4.53
2018-02-18T11:46:44.960Z,4.03
2018-02-18T11:49:13.440Z,3.90
2018-02-18T11:51:43.068Z,4.60
2018-02-18T11:54:12.248Z,4.00
2018-02-18T11:56:40.598Z,3.77
2018-02-18T11:59:09.597Z,3.33
2018-02-18T12:01:37.981Z,3.63
2018-02-18T12:04:06.481Z,3.20
2018-02-18T12:06:34.902Z,3.07
2018-02-18T12:09:03.352Z,3.33
2018-02-18T12:11:32.547Z,2.90
2018-02-18T12:14:01.766Z,2.87
2018-02-18T12:16:30.584Z,2.97
2018-02-18T12:18:59.737Z,2.77
2018-02-18T12:21:29.280Z,2.90
2018-02-18T12:23:57.818Z,3.70
2018-02-18T12:26:26.271Z,3.53
2018-02-18T12:28:54.785Z,3.47
2018-02-18T12:31:23.234Z,3.20
2018-02-18T12:33:51.622Z,3.87
2018-02-18T12:36:20.068Z,3.33
2018-02-18T12:38:48.896Z,3.43
2018-02-18T12:41:17.350Z,3.07
2018-02-18T12:43:46.295Z,3.40
2018-02-18T12:46:14.666Z,3.20
2018-02-18T12:48:43.085Z,3.07
2018-02-18T12:51:11.497Z,3.33
2018-02-18T12:53:39.804Z,3.70
2018-02-18T12:56:08.155Z,3.30
2018-02-18T12:58:36.552Z,3.67
2018-02-18T13:01:04.989Z,4.10
2018-02-18T13:03:33.327Z,3.50
2018-02-18T13:06:02.219Z,3.80
2018-02-18T13:08:30.696Z,3.70
2018-02-18T13:10:59.119Z,3.63
2018-02-18T13:13:27.792Z,4.03
2018-02-18T13:15:56.286Z,4.27
2018-02-18T13:18:24.705Z,3.50
2018-02-18T13:20:53.416Z,4.00
2018-02-18T13:23:21.905Z,3.90
2018-02-18T13:25:50.450Z,3.60
2018-02-18T13:28:19.256Z,4.40
2018-02-18T13:30:47.601Z,4.20
2018-02-18T13:33:16.030Z,4.13
2018-02-18T13:35:44.481Z,3.87
2018-02-18T13:38:12.926Z,4.20
2018-02-18T13:40:41.313Z,3.83
2018-02-18T13:43:09.826Z,4.13
2018-02-18T13:45:38.201Z,3.67
2018-02-18T13:48:06.639Z,3.80
2018-02-18T13:50:36.055Z,4.07
2018-02-18T13:53:04.397Z,4.47
2018-02-18T13:55:32.741Z,3.83
2018-02-18T13:58:01.077Z,4.47
2018-02-18T14:00:29.383Z,3.83
2018-02-18T14:02:57.717Z,4.30
2018-02-18T14:05:26.168Z,4.50
2018-02-18T14:07:54.495Z,3.87
2018-02-18T14:10:23.764Z,4.30
2018-02-18T14:12:52.723Z,5.03
2018-02-18T14:15:21.172Z,4.23
2018-02-18T14:17:50.288Z,4.70
2018-02-18T14:20:18.736Z,4.77
2018-02-18T14:22:48.021Z,4.30
2018-02-18T14:25:16.463Z,4.70
2018-02-18T14:27:44.931Z,4.03
2018-02-18T14:30:13.303Z,5.60
2018-02-18T14:32:41.742Z,4.77
2018-02-18T14:35:10.317Z,4.63
2018-02-18T14:37:38.737Z,4.97
2018-02-18T14:40:07.095Z,5.40
2018-02-18T14:42:53.101Z,4.73
2018-02-18T14:45:38.978Z,4.80
2018-02-18T14:48:25.710Z,5.20
2018-02-18T14:51:12.694Z,5.17
2018-02-18T14:53:58.807Z,6.13
2018-02-18T14:56:44.745Z,5.77
2018-02-18T14:59:13.226Z,5.23
2018-02-18T15:01:41.642Z,6.60
2018-02-18T15:04:10.125Z,5.70
2018-02-18T15:06:38.600Z,5.80
2018-02-18T15:09:06.984Z,5.90
2018-02-18T15:11:35.402Z,6.50
2018-02-18T15:14:04.357Z,6.40
2018-02-18T15:16:32.770Z,6.87
2018-02-18T15:19:01.100Z,6.50
2018-02-18T15:21:29.562Z,7.80
2018-02-18T15:23:58.015Z,6.67
2018-02-18T15:26:26.559Z,6.60
2018-02-18T15:28:54.943Z,6.80
2018-02-18T15:31:23.541Z,6.10
2018-02-18T15:33:51.918Z,7.33
2018-02-18T15:36:21.245Z,6.60
2018-02-18T15:38:49.582Z,6.73
2018-02-18T15:41:17.918Z,6.30
2018-02-18T15:43:46.275Z,7.13
2018-02-18T15:46:15.366Z,6.87
2018-02-18T15:48:44.466Z,7.00
2018-02-18T15:51:13.594Z,6.80
2018-02-18T15:53:41.964Z,6.07
2018-02-18T15:56:10.757Z,6.27
2018-02-18T15:58:39.306Z,6.77
2018-02-18T16:01:08.376Z,6.80
2018-02-18T16:03:36.779Z,6.23
2018-02-18T16:06:05.949Z,7.30
2018-02-18T16:08:34.258Z,7.37
2018-02-18T16:11:03.400Z,7.10
2018-02-18T16:13:31.770Z,6.83
2018-02-18T16:16:00.146Z,6.80
2018-02-18T16:18:28.503Z,7.33
2018-02-18T16:20:56.937Z,7.07
2018-02-18T16:23:25.298Z,7.00
2018-02-18T16:25:53.619Z,7.10
2018-02-18T16:28:22.707Z,7.17
2018-02-18T16:30:51.082Z,8.13
2018-02-18T16:33:19.361Z,8.67
2018-02-18T16:35:47.725Z,8.70
2018-02-18T16:38:16.059Z,8.57
2018-02-18T16:40:44.400Z,7.50
2018-02-18T16:43:13.139Z,9.07
2018-02-18T16:45:41.430Z,8.10
2018-02-18T16:48:10.528Z,7.80
2018-02-18T16:50:38.912Z,7.77
2018-02-18T16:53:07.258Z,7.90
2018-02-18T16:55:35.647Z,8.20
2018-02-18T16:58:04.320Z,8.57
2018-02-18T17:00:32.645Z,9.73
2018-02-18T17:03:00.961Z,8.32
2018-02-18T17:05:29.646Z,8.63
2018-02-18T17:07:57.966Z,10.05
2018-02-18T17:10:26.275Z,9.20
2018-02-18T17:12:54.643Z,9.57
2018-02-18T17:15:23.029Z,8.57
2018-02-18T17:17:51.374Z,9.25
2018-02-18T17:20:19.742Z,8.67
2018-02-18T17:22:48.066Z,8.93
2018-02-18T17:25:16.431Z,9.27
2018-02-18T17:27:44.858Z,9.50
2018-02-18T17:30:13.179Z,9.90
2018-02-18T17:32:41.536Z,9.70
2018-02-18T17:35:09.937Z,10.73
2018-02-18T17:37:38.357Z,9.15
2018-02-18T17:40:07.532Z,10.90
2018-02-18T17:42:35.925Z,10.43
2018-02-18T17:45:04.387Z,9.77
2018-02-18T17:47:32.803Z,10.45
2018-02-18T17:50:01.573Z,11.07
2018-02-18T17:52:29.996Z,11.38
2018-02-18T17:55:00.723Z,10.98
2018-02-18T17:57:29.213Z,11.43
2018-02-18T17:59:57.983Z,10.90
2018-02-18T18:02:26.846Z,11.75
2018-02-18T18:04:58.607Z,12.57
2018-02-18T18:07:27.220Z,11.93
2018-02-18T18:09:55.838Z,11.12
2018-02-18T18:12:25.005Z,12.07
2018-02-18T18:14:53.671Z,12.05
2018-02-18T18:17:22.069Z,12.30
2018-02-18T18:19:50.563Z,14.00
2018-02-18T18:22:19.095Z,13.93
2018-02-18T18:24:47.543Z,14.55
2018-02-18T18:27:16.075Z,14.07
2018-02-18T18:29:44.464Z,13.62
2018-02-18T18:32:13.819Z,14.48
2018-02-18T18:34:42.430Z,13.85
2018-02-18T18:37:10.743Z,13.52
2018-02-18T18:39:40.002Z,14.98
2018-02-18T18:42:09.323Z,15.73
2018-02-18T18:44:37.721Z,13.27
2018-02-18T18:47:06.094Z,15.20
2018-02-18T18:49:35.377Z,13.00
2018-02-18T18:52:03.764Z,11.65
2018-02-18T18:54:32.079Z,12.48
2018-02-18T18:57:01.217Z,11.88
2018-02-18T18:59:30.196Z,12.90
2018-02-18T19:01:58.603Z,13.23
2018-02-18T19:04:26.994Z,13.05
2018-02-18T19:06:55.314Z,13.10
2018-02-18T19:09:23.649Z,13.77
2018-02-18T19:11:52.084Z,13.40
2018-02-18T19:14:20.502Z,13.55
2018-02-18T19:16:48.886Z,12.02
2018-02-18T19:19:17.726Z,13.40
2018-02-18T19:21:46.070Z,14.00
2018-02-18T19:24:15.194Z,13.35
2018-02-18T19:26:43.551Z,13.85
2018-02-18T19:29:11.904Z,12.52
2018-02-18T19:31:40.249Z,12.55
2018-02-18T19:34:08.598Z,13.70
2018-02-18T19:36:36.929Z,12.18
2018-02-18T19:39:05.283Z,11.98
2018-02-18T19:41:33.866Z,11.88
2018-02-18T19:44:02.244Z,13.02
2018-02-18T19:46:30.598Z,12.40
2018-02-18T19:48:58.953Z,12.60
2018-02-18T19:51:27.387Z,12.82
2018-02-18T19:53:55.788Z,12.50
2018-02-18T19:56:24.160Z,11.80
2018-02-18T19:58:52.517Z,12.05
2018-02-18T20:01:21.048Z,13.32
2018-02-18T20:03:50.029Z,10.60
2018-02-18T20:06:18.484Z,11.60
2018-02-18T20:08:46.806Z,11.45
2018-02-18T20:11:15.864Z,10.40
2018-02-18T20:13:45.488Z,10.93
2018-02-18T20:16:14.162Z,10.95
2018-02-18T20:18:42.514Z,12.15
2018-02-18T20:21:10.870Z,12.30
2018-02-18T20:23:39.966Z,11.30
2018-02-18T20:26:09.220Z,12.68
2018-02-18T20:28:37.574Z,12.52
2018-02-18T20:31:05.876Z,11.07
2018-02-18T20:33:34.267Z,13.18
2018-02-18T20:36:02.593Z,13.57
2018-02-18T20:38:30.902Z,12.32
2018-02-18T20:40:59.280Z,11.85
2018-02-18T20:43:27.613Z,11.63
2018-02-18T20:45:56.678Z,11.15
2018-02-18T20:48:25.243Z,12.60
2018-02-18T20:50:53.608Z,12.05
2018-02-18T20:53:21.997Z,11.52
2018-02-18T20:55:50.556Z,12.18
2018-02-18T20:58:18.879Z,12.63
2018-02-18T21:00:47.226Z,13.13
2018-02-18T21:03:15.885Z,13.00
2018-02-18T21:05:44.977Z,11.77
2018-02-18T21:08:14.069Z,14.57
2018-02-18T21:10:43.637Z,13.10
2018-02-18T21:13:11.982Z,13.68
2018-02-18T21:15:40.308Z,12.40
2018-02-18T21:18:08.716Z,13.02
2018-02-18T21:20:37.045Z,13.60
2018-02-18T21:23:05.393Z,14.10
2018-02-18T21:25:33.782Z,12.98
2018-02-18T21:28:02.149Z,12.68
2018-02-18T21:30:30.479Z,13.35
2018-02-18T21:32:59.125Z,14.50
2018-02-18T21:35:27.483Z,13.75
2018-02-18T21:37:55.837Z,13.57
2018-02-18T21:40:24.279Z,15.15
2018-02-18T21:42:52.627Z,14.40
2018-02-18T21:45:20.945Z,13.70
2018-02-18T21:47:49.378Z,14.02
2018-02-18T21:50:18.664Z,13.32
2018-02-18T21:52:47.740Z,13.20
2018-02-18T21:55:16.290Z,14.18
2018-02-18T21:57:44.609Z,13.85
2018-02-18T22:00:12.943Z,13.70
2018-02-18T22:02:41.265Z,13.23
2018-02-18T22:05:09.601Z,13.23
2018-02-18T22:07:37.950Z,12.57
2018-02-18T22:10:06.318Z,13.35
2018-02-18T22:12:35.396Z,12.75
2018-02-18T22:15:04.625Z,13.38
2018-02-18T22:17:33.373Z,14.10
2018-02-18T22:20:01.711Z,13.80
2018-02-18T22:22:30.068Z,13.38
2018-02-18T22:24:58.438Z,13.98
2018-02-18T22:27:27.531Z,13.65
2018-02-18T22:29:56.629Z,13.15
2018-02-18T22:32:25.768Z,12.73
2018-02-18T22:34:54.086Z,12.52
2018-02-18T22:37:22.422Z,11.48
2018-02-18T22:39:50.886Z,13.65
2018-02-18T22:42:19.224Z,12.82
2018-02-18T22:44:47.525Z,13.65
2018-02-18T22:47:16.640Z,13.90
2018-02-18T22:49:44.981Z,14.00
2018-02-18T22:52:13.303Z,12.48
2018-02-18T22:54:41.650Z,13.00
2018-02-18T22:57:09.973Z,13.07
2018-02-18T22:59:38.291Z,14.00
2018-02-18T23:02:06.999Z,14.65
2018-02-18T23:04:36.100Z,13.68
2018-02-18T23:07:07.304Z,14.90
2018-02-18T23:09:35.669Z,14.15
2018-02-18T23:12:04.001Z,13.85
2018-02-18T23:14:33.102Z,14.75
2018-02-18T23:17:01.458Z,14.18
2018-02-18T23:19:30.520Z,14.55
2018-02-18T23:21:58.831Z,15.50
2018-02-18T23:24:27.448Z,14.57
2018-02-18T23:26:55.779Z,14.00
2018-02-18T23:29:24.083Z,13.85
2018-02-18T23:31:53.219Z,13.40
2018-02-18T23:34:21.554Z,14.27
2018-02-18T23:36:50.628Z,15.25
2018-02-18T23:39:18.984Z,15.35
2018-02-18T23:41:47.306Z,15.98
2018-02-18T23:44:16.432Z,15.55
2018-02-18T23:46:45.192Z,15.35
2018-02-18T23:49:13.516Z,14.75
2018-02-18T23:51:41.838Z,14.70
2018-02-18T23:54:10.204Z,13.95
2018-02-18T23:56:38.540Z,15.60
2018-02-18T23:59:06.852Z,15.52
